createdAt,value
2022-09-06T00:02:32.866Z,100938.25
2022-09-06T00:04:59.806Z,100936.31
2022-09-06T00:07:26.589Z,100945.38
2022-09-06T00:09:53.305Z,100936.31
2022-09-06T00:12:20.745Z,100932.44
2022-09-06T00:14:47.486Z,100936.94
2022-09-06T00:17:14.228Z,100938.84
2022-09-06T00:19:40.931Z,100938.66
2022-09-06T00:22:07.767Z,100927.00
2022-09-06T00:24:37.158Z,100925.00
2022-09-06T00:27:05.906Z,100933.66
2022-09-06T00:29:33.128Z,100932.06
2022-09-06T00:32:00.290Z,100934.94
2022-09-06T00:34:28.437Z,100934.53
2022-09-06T00:36:55.595Z,100924.56
2022-09-06T00:39:22.529Z,100924.81
2022-09-06T00:41:49.382Z,100918.25
2022-09-06T00:44:16.214Z,100924.47
2022-09-06T00:46:45.468Z,100916.75
2022-09-06T00:49:41.690Z,100906.41
2022-09-06T00:52:11.702Z,100911.59
2022-09-06T00:54:39.206Z,100911.06
2022-09-06T00:57:06.228Z,100912.75
2022-09-06T00:59:35.788Z,100920.22
2022-09-06T01:02:05.574Z,100916.53
2022-09-06T01:04:33.470Z,100916.25
2022-09-06T01:07:07.712Z,100918.47
2022-09-06T01:09:44.251Z,100920.81
2022-09-06T01:12:35.539Z,100920.25
2022-09-06T01:15:21.662Z,100921.34
2022-09-06T01:18:10.030Z,100916.34
2022-09-06T01:20:55.452Z,100922.53
2022-09-06T01:23:59.831Z,100917.63
2022-09-06T01:26:48.939Z,100918.97
2022-09-06T01:29:44.260Z,100924.34
2022-09-06T01:32:59.118Z,100923.22
2022-09-06T01:35:37.945Z,100921.81
2022-09-06T01:38:05.490Z,100922.34
2022-09-06T01:40:36.369Z,100917.00
2022-09-06T01:43:10.626Z,100922.91
2022-09-06T01:46:05.739Z,100917.38
2022-09-06T01:48:54.211Z,100921.69
2022-09-06T01:51:39.590Z,100927.06
2022-09-06T01:54:06.355Z,100911.75
2022-09-06T01:56:45.165Z,100916.97
2022-09-06T01:59:29.940Z,100924.06
2022-09-06T02:02:03.629Z,100919.13
2022-09-06T02:04:41.503Z,100923.56
2022-09-06T02:07:20.356Z,100924.69
2022-09-06T02:09:53.424Z,100919.13
2022-09-06T02:12:23.025Z,100920.00
2022-09-06T02:15:01.612Z,100916.03
2022-09-06T02:17:33.689Z,100905.78
2022-09-06T02:20:12.556Z,100904.06
2022-09-06T02:22:43.869Z,100912.94
2022-09-06T02:25:13.946Z,100906.56
2022-09-06T02:27:40.727Z,100908.03
2022-09-06T02:30:08.089Z,100905.16
2022-09-06T02:32:40.387Z,100898.25
2022-09-06T02:35:15.144Z,100891.59
2022-09-06T02:37:43.486Z,100881.56
2022-09-06T02:40:11.254Z,100890.47
2022-09-06T02:42:39.738Z,100894.53
2022-09-06T02:45:06.871Z,100891.53
2022-09-06T02:47:33.698Z,100894.16
2022-09-06T02:50:00.998Z,100888.84
2022-09-06T02:52:27.729Z,100891.09
2022-09-06T02:54:55.270Z,100885.31
2022-09-06T02:57:22.064Z,100888.00
2022-09-06T02:59:48.992Z,100892.38
2022-09-06T03:02:15.960Z,100881.38
2022-09-06T03:04:42.755Z,100886.91
2022-09-06T03:07:09.577Z,100886.22
2022-09-06T03:09:36.316Z,100881.88
2022-09-06T03:12:03.300Z,100880.50
2022-09-06T03:14:30.004Z,100888.75
2022-09-06T03:16:57.052Z,100895.69
2022-09-06T03:19:23.918Z,100888.09
2022-09-06T03:21:50.803Z,100891.81
2022-09-06T03:24:17.567Z,100880.06
2022-09-06T03:26:44.465Z,100887.94
2022-09-06T03:29:11.217Z,100884.78
2022-09-06T03:31:38.004Z,100887.75
2022-09-06T03:34:09.063Z,100882.84
2022-09-06T03:36:37.677Z,100879.88
2022-09-06T03:39:04.407Z,100873.25
2022-09-06T03:41:31.152Z,100877.69
2022-09-06T03:43:57.941Z,100873.88
2022-09-06T03:46:24.882Z,100875.41
2022-09-06T03:48:51.652Z,100871.31
2022-09-06T03:51:18.413Z,100876.50
2022-09-06T03:53:45.239Z,100876.69
2022-09-06T03:56:11.998Z,100873.06
2022-09-06T03:58:38.865Z,100875.59
2022-09-06T04:01:11.113Z,100886.59
2022-09-06T04:03:39.120Z,100892.59
2022-09-06T04:06:06.870Z,100879.47
2022-09-06T04:08:34.376Z,100879.38
2022-09-06T04:11:01.261Z,100880.75
2022-09-06T04:13:29.436Z,100884.06
2022-09-06T04:15:56.403Z,100890.81
2022-09-06T04:18:24.059Z,100881.50
2022-09-06T04:20:52.550Z,100879.00
2022-09-06T04:23:20.334Z,100883.03
2022-09-06T04:25:52.223Z,100876.56
2022-09-06T04:28:19.523Z,100881.28
2022-09-06T04:30:52.775Z,100879.44
2022-09-06T04:33:20.555Z,100878.72
2022-09-06T04:35:50.624Z,100885.84
2022-09-06T04:38:17.372Z,100883.63
2022-09-06T04:40:44.032Z,100892.78
2022-09-06T04:43:10.802Z,100883.78
2022-09-06T04:45:38.025Z,100878.91
2022-09-06T04:48:04.803Z,100885.34
2022-09-06T04:50:31.581Z,100889.13
2022-09-06T04:53:05.018Z,100881.56
2022-09-06T04:55:32.431Z,100888.03
2022-09-06T04:58:00.140Z,100887.19
2022-09-06T05:00:28.645Z,100898.66
2022-09-06T05:02:55.612Z,100904.44
2022-09-06T05:05:25.197Z,100901.47
2022-09-06T05:07:53.228Z,100902.56
2022-09-06T05:10:20.945Z,100909.50
2022-09-06T05:12:52.659Z,100916.44
2022-09-06T05:15:20.770Z,100909.72
2022-09-06T05:17:47.771Z,100912.38
2022-09-06T05:20:15.460Z,100911.69
2022-09-06T05:22:42.355Z,100907.03
2022-09-06T05:25:09.770Z,100893.94
2022-09-06T05:27:36.611Z,100901.00
2022-09-06T05:30:04.806Z,100897.53
2022-09-06T05:32:31.550Z,100894.69
2022-09-06T05:34:58.256Z,100893.25
2022-09-06T05:37:25.111Z,100892.22
2022-09-06T05:39:52.039Z,100890.81
2022-09-06T05:42:19.505Z,100886.69
2022-09-06T05:44:46.646Z,100889.63
2022-09-06T05:47:13.640Z,100895.50
2022-09-06T05:49:40.435Z,100900.34
2022-09-06T05:52:07.147Z,100902.63
2022-09-06T05:54:33.874Z,100896.94
2022-09-06T05:57:00.605Z,100895.31
2022-09-06T05:59:27.364Z,100899.91
2022-09-06T06:01:54.836Z,100900.41
2022-09-06T06:04:22.488Z,100900.41
2022-09-06T06:06:49.618Z,100902.88
2022-09-06T06:09:16.686Z,100900.19
2022-09-06T06:11:44.040Z,100901.84
2022-09-06T06:14:10.846Z,100900.63
2022-09-06T06:16:37.729Z,100901.63
2022-09-06T06:19:04.511Z,100893.97
2022-09-06T06:21:33.135Z,100888.16
2022-09-06T06:24:04.566Z,100885.66
2022-09-06T06:26:33.902Z,100884.84
2022-09-06T06:29:02.033Z,100877.81
2022-09-06T06:31:30.641Z,100877.00
2022-09-06T06:33:58.317Z,100870.13
2022-09-06T06:36:30.882Z,100869.84
2022-09-06T06:38:58.658Z,100875.69
2022-09-06T06:41:27.761Z,100874.00
2022-09-06T06:43:57.986Z,100871.50
2022-09-06T06:46:27.232Z,100879.59
2022-09-06T06:48:56.888Z,100878.91
2022-09-06T06:51:25.571Z,100872.00
2022-09-06T06:53:52.783Z,100866.34
2022-09-06T06:56:33.582Z,100861.13
2022-09-06T06:59:02.726Z,100863.63
2022-09-06T07:01:31.305Z,100867.53
2022-09-06T07:03:58.756Z,100867.69
2022-09-06T07:09:12.542Z,100866.97
2022-09-06T07:11:39.201Z,100871.09
2022-09-06T07:14:05.893Z,100876.94
2022-09-06T07:16:32.612Z,100883.38
2022-09-06T07:18:59.471Z,100882.09
2022-09-06T07:21:42.166Z,100892.28
2022-09-06T07:24:10.107Z,100884.78
2022-09-06T07:26:38.923Z,100890.31
2022-09-06T07:29:07.023Z,100889.50
2022-09-06T07:34:22.232Z,100900.41
2022-09-06T07:36:52.554Z,100902.06
2022-09-06T07:39:19.364Z,100899.28
2022-09-06T07:41:46.232Z,100899.88
2022-09-06T07:44:14.181Z,100898.09
2022-09-06T07:46:41.061Z,100894.72
2022-09-06T07:49:07.795Z,100897.19
2022-09-06T07:51:34.603Z,100891.56
2022-09-06T07:56:51.949Z,100896.63
2022-09-06T07:59:24.714Z,100893.94
2022-09-06T08:01:51.554Z,100893.09
2022-09-06T08:04:18.342Z,100892.00
2022-09-06T08:09:35.459Z,100886.47
2022-09-06T08:12:09.777Z,100879.50
2022-09-06T08:14:36.541Z,100889.19
2022-09-06T08:17:04.032Z,100897.75
2022-09-06T08:19:30.792Z,100891.44
2022-09-06T08:21:57.456Z,100885.72
2022-09-06T08:26:50.934Z,100887.97
2022-09-06T08:29:18.922Z,100884.06
2022-09-06T08:31:46.454Z,100871.41
2022-09-06T08:34:14.341Z,100869.16
2022-09-06T08:36:42.399Z,100874.34
2022-09-06T08:39:10.173Z,100878.66
2022-09-06T08:42:13.199Z,100873.22
2022-09-06T08:44:58.013Z,100861.00
2022-09-06T08:47:25.675Z,100865.47
2022-09-06T08:50:00.468Z,100860.69
2022-09-06T08:52:39.360Z,100855.97
2022-09-06T08:56:04.298Z,100858.38
2022-09-06T08:59:08.793Z,100855.31
2022-09-06T09:01:49.994Z,100854.19
2022-09-06T09:04:23.360Z,100849.44
2022-09-06T09:06:58.077Z,100846.41
2022-09-06T09:09:30.387Z,100850.19
2022-09-06T09:11:58.361Z,100849.03
2022-09-06T09:14:29.236Z,100850.81
2022-09-06T09:17:11.733Z,100852.00
2022-09-06T09:19:41.420Z,100840.25
2022-09-06T09:22:08.890Z,100840.97
2022-09-06T09:24:37.138Z,100842.16
2022-09-06T09:27:11.299Z,100831.53
2022-09-06T09:32:46.059Z,100822.84
2022-09-06T09:35:18.906Z,100829.81
2022-09-06T09:37:47.347Z,100829.19
2022-09-06T09:40:33.660Z,100822.25
2022-09-06T09:43:20.864Z,100812.69
2022-09-06T09:46:08.654Z,100816.13
2022-09-06T09:48:35.935Z,100803.00
2022-09-06T09:51:27.609Z,100799.00
2022-09-06T09:53:58.730Z,100794.53
2022-09-06T09:56:30.865Z,100798.31
2022-09-06T09:58:58.966Z,100802.75
2022-09-06T10:01:29.529Z,100796.31
2022-09-06T10:07:08.192Z,100789.47
2022-09-06T10:09:38.909Z,100792.00
2022-09-06T10:12:06.008Z,100784.06
2022-09-06T10:14:41.783Z,100786.41
2022-09-06T10:17:08.804Z,100783.56
2022-09-06T10:19:44.322Z,100775.28
2022-09-06T10:22:14.753Z,100771.97
2022-09-06T10:24:53.598Z,100769.44
2022-09-06T10:27:28.632Z,100767.97
2022-09-06T10:30:02.168Z,100761.09
2022-09-06T10:33:18.440Z,100764.31
2022-09-06T10:35:45.495Z,100759.63
2022-09-06T10:38:41.895Z,100753.63
2022-09-06T10:41:25.369Z,100744.75
2022-09-06T10:44:11.208Z,100743.22
2022-09-06T10:46:40.648Z,100745.03
2022-09-06T10:49:15.995Z,100747.66
2022-09-06T10:51:51.703Z,100748.03
2022-09-06T10:54:23.602Z,100749.75
2022-09-06T10:57:06.947Z,100745.13
2022-09-06T10:59:38.061Z,100743.31
2022-09-06T11:02:36.838Z,100737.19
2022-09-06T11:10:51.717Z,100734.09
2022-09-06T11:13:20.883Z,100734.41
2022-09-06T11:16:12.377Z,100724.97
2022-09-06T11:19:01.785Z,100724.38
2022-09-06T11:21:37.491Z,100719.59
2022-09-06T11:24:07.341Z,100702.34
2022-09-06T11:26:42.803Z,100708.47
2022-09-06T11:29:22.319Z,100702.19
2022-09-06T11:34:53.846Z,100700.47
2022-09-06T11:37:26.702Z,100694.31
2022-09-06T11:42:55.908Z,100688.56
2022-09-06T11:45:40.699Z,100683.66
2022-09-06T11:48:26.510Z,100688.31
2022-09-06T11:50:53.840Z,100677.69
2022-09-06T11:53:32.406Z,100677.56
2022-09-06T11:55:59.989Z,100673.97
2022-09-06T11:58:41.857Z,100681.25
2022-09-06T12:01:16.643Z,100672.22
2022-09-06T12:06:35.542Z,100671.44
2022-09-06T12:09:22.785Z,100666.66
2022-09-06T12:11:49.712Z,100674.56
2022-09-06T12:14:26.044Z,100668.22
2022-09-06T12:16:56.264Z,100666.66
2022-09-06T12:19:47.507Z,100662.06
2022-09-06T12:22:41.604Z,100667.78
2022-09-06T12:25:34.264Z,100654.66
2022-09-06T12:28:02.731Z,100662.34
2022-09-06T12:30:37.400Z,100656.66
2022-09-06T12:33:13.859Z,100659.69
2022-09-06T12:35:56.425Z,100655.63
2022-09-06T12:38:25.571Z,100643.41
2022-09-06T12:40:58.237Z,100642.56
2022-09-06T12:43:25.977Z,100640.97
2022-09-06T12:45:52.964Z,100633.41
2022-09-06T12:48:31.616Z,100635.50
2022-09-06T12:51:16.141Z,100636.03
2022-09-06T12:53:53.421Z,100634.13
2022-09-06T12:56:22.422Z,100624.06
2022-09-06T12:58:49.345Z,100627.59
2022-09-06T13:01:23.771Z,100610.19
2022-09-06T13:04:13.650Z,100605.50
2022-09-06T13:06:45.914Z,100603.16
2022-09-06T13:09:17.857Z,100606.44
2022-09-06T13:11:51.317Z,100599.91
2022-09-06T13:14:23.580Z,100606.44
2022-09-06T13:16:52.520Z,100609.75
2022-09-06T13:19:31.405Z,100605.91
2022-09-06T13:21:59.344Z,100599.91
2022-09-06T13:24:27.329Z,100598.00
2022-09-06T13:26:54.572Z,100590.66
2022-09-06T13:29:30.464Z,100594.47
2022-09-06T13:31:59.841Z,100581.41
2022-09-06T13:34:29.377Z,100578.97
2022-09-06T13:37:10.315Z,100579.50
2022-09-06T13:39:38.777Z,100585.50
2022-09-06T13:42:08.769Z,100571.41
2022-09-06T13:44:37.588Z,100575.56
2022-09-06T13:47:05.242Z,100571.25
2022-09-06T13:49:33.073Z,100567.19
2022-09-06T13:52:02.835Z,100577.66
2022-09-06T13:54:30.728Z,100574.09
2022-09-06T13:56:57.895Z,100567.19
2022-09-06T13:59:25.438Z,100569.06
2022-09-06T14:02:04.853Z,100577.50
2022-09-06T14:04:32.937Z,100566.84
2022-09-06T14:07:00.010Z,100560.38
2022-09-06T14:09:26.823Z,100568.38
2022-09-06T14:11:53.516Z,100559.53
2022-09-06T14:14:20.328Z,100554.34
2022-09-06T14:16:47.764Z,100552.97
2022-09-06T14:19:15.215Z,100554.59
2022-09-06T14:21:42.060Z,100557.00
2022-09-06T14:24:09.145Z,100551.03
2022-09-06T14:26:36.790Z,100541.75
2022-09-06T14:29:03.879Z,100533.31
2022-09-06T14:31:32.712Z,100532.78
2022-09-06T14:34:01.358Z,100534.13
2022-09-06T14:36:29.574Z,100528.91
2022-09-06T14:38:58.494Z,100521.81
2022-09-06T14:41:26.003Z,100525.91
2022-09-06T14:43:54.973Z,100521.53
2022-09-06T14:46:23.711Z,100521.53
2022-09-06T14:49:00.842Z,100515.25
2022-09-06T14:51:27.992Z,100510.13
2022-09-06T14:53:58.213Z,100511.72
2022-09-06T14:56:26.265Z,100509.31
2022-09-06T14:58:57.205Z,100517.44
2022-09-06T15:01:27.202Z,100508.19
2022-09-06T15:03:59.729Z,100505.75
2022-09-06T15:06:27.663Z,100502.22
2022-09-06T15:08:59.189Z,100499.78
2022-09-06T15:11:37.003Z,100504.41
2022-09-06T15:14:18.140Z,100504.38
2022-09-06T15:16:46.390Z,100506.50
2022-09-06T15:19:14.105Z,100505.97
2022-09-06T15:21:41.242Z,100500.22
2022-09-06T15:24:11.756Z,100500.47
2022-09-06T15:26:39.369Z,100506.19
2022-09-06T15:29:06.054Z,100493.63
2022-09-06T15:31:37.005Z,100497.13
2022-09-06T15:34:04.195Z,100496.84
2022-09-06T15:36:31.883Z,100500.94
2022-09-06T15:39:03.144Z,100498.75
2022-09-06T15:41:32.433Z,100503.66
2022-09-06T15:44:01.554Z,100497.41
2022-09-06T15:46:50.184Z,100496.84
2022-09-06T15:49:23.272Z,100502.81
2022-09-06T15:51:52.841Z,100507.94
2022-09-06T15:54:41.096Z,100512.25
2022-09-06T15:57:09.316Z,100513.88
2022-09-06T15:59:36.289Z,100508.09
2022-09-06T16:02:03.399Z,100505.91
2022-09-06T16:04:30.101Z,100492.84
2022-09-06T16:06:57.128Z,100497.47
2022-09-06T16:09:23.855Z,100498.59
2022-09-06T16:11:50.650Z,100501.84
2022-09-06T16:14:18.069Z,100502.38
2022-09-06T16:16:45.572Z,100505.88
2022-09-06T16:19:13.098Z,100504.47
2022-09-06T16:21:42.554Z,100507.13
2022-09-06T16:24:10.469Z,100508.19
2022-09-06T16:26:42.653Z,100508.97
2022-09-06T16:29:11.455Z,100509.72
2022-09-06T16:31:40.590Z,100512.06
2022-09-06T16:34:11.847Z,100512.03
2022-09-06T16:36:39.291Z,100507.88
2022-09-06T16:39:06.991Z,100513.00
2022-09-06T16:41:45.764Z,100512.13
2022-09-06T16:44:16.609Z,100508.53
2022-09-06T16:46:46.726Z,100509.00
2022-09-06T16:49:15.875Z,100506.22
2022-09-06T16:51:43.678Z,100506.44
2022-09-06T16:54:10.468Z,100518.63
2022-09-06T16:56:37.318Z,100510.41
2022-09-06T16:59:06.448Z,100504.91
2022-09-06T17:01:34.445Z,100516.19
2022-09-06T17:04:02.271Z,100509.81
2022-09-06T17:06:30.024Z,100517.09
2022-09-06T17:09:00.597Z,100503.09
2022-09-06T17:11:28.708Z,100512.00
2022-09-06T17:13:57.175Z,100511.69
2022-09-06T17:16:43.558Z,100508.03
2022-09-06T17:19:10.798Z,100511.47
2022-09-06T17:21:39.276Z,100507.38
2022-09-06T17:24:07.597Z,100518.97
2022-09-06T17:26:37.531Z,100511.88
2022-09-06T17:29:04.710Z,100512.34
2022-09-06T17:31:32.162Z,100513.63
2022-09-06T17:34:02.302Z,100518.38
2022-09-06T17:36:31.725Z,100516.31
2022-09-06T17:39:04.404Z,100524.69
2022-09-06T17:41:39.435Z,100526.25
2022-09-06T17:44:07.755Z,100532.72
2022-09-06T17:46:34.538Z,100536.44
2022-09-06T17:49:01.639Z,100528.25
2022-09-06T17:51:28.452Z,100528.63
2022-09-06T17:53:55.172Z,100535.50
2022-09-06T17:56:21.857Z,100536.72
2022-09-06T17:58:54.223Z,100534.69
2022-09-06T18:01:21.892Z,100530.00
2022-09-06T18:03:49.070Z,100544.38
2022-09-06T18:06:22.874Z,100539.78
2022-09-06T18:08:52.049Z,100532.38
2022-09-06T18:11:22.486Z,100536.28
2022-09-06T18:13:59.241Z,100545.16
2022-09-06T18:16:27.071Z,100547.16
2022-09-06T18:18:56.401Z,100538.44
2022-09-06T18:21:24.740Z,100539.84
2022-09-06T18:23:51.625Z,100544.44
2022-09-06T18:26:18.474Z,100539.50
2022-09-06T18:28:45.232Z,100546.78
2022-09-06T18:31:14.659Z,100547.38
2022-09-06T18:33:42.559Z,100549.28
2022-09-06T18:36:11.197Z,100563.94
2022-09-06T18:38:39.768Z,100556.19
2022-09-06T18:41:09.180Z,100558.31
2022-09-06T18:43:39.139Z,100562.31
2022-09-06T18:46:08.498Z,100561.25
2022-09-06T18:48:36.839Z,100567.84
2022-09-06T18:51:08.091Z,100569.38
2022-09-06T18:53:36.285Z,100565.97
2022-09-06T18:56:03.005Z,100562.91
2022-09-06T18:58:29.961Z,100563.75
2022-09-06T19:01:04.557Z,100561.84
2022-09-06T19:03:32.666Z,100558.66
2022-09-06T19:06:07.916Z,100562.22
2022-09-06T19:08:35.458Z,100561.88
2022-09-06T19:11:07.435Z,100550.31
2022-09-06T19:13:35.431Z,100553.38
2022-09-06T19:16:02.982Z,100551.38
2022-09-06T19:18:29.863Z,100554.66
2022-09-06T19:20:57.727Z,100550.44
2022-09-06T19:23:24.852Z,100556.69
2022-09-06T19:26:09.302Z,100553.28
2022-09-06T19:28:37.805Z,100561.03
2022-09-06T19:31:14.520Z,100562.69
2022-09-06T19:33:43.265Z,100558.09
2022-09-06T19:36:12.396Z,100567.06
2022-09-06T19:39:02.583Z,100557.50
2022-09-06T19:41:28.948Z,100556.66
2022-09-06T19:43:57.194Z,100546.44
2022-09-06T19:46:25.070Z,100547.25
2022-09-06T19:48:54.079Z,100543.97
2022-09-06T19:51:21.014Z,100551.50
2022-09-06T19:53:50.018Z,100545.59
2022-09-06T19:56:19.335Z,100544.78
2022-09-06T19:58:46.078Z,100545.97
2022-09-06T20:01:17.885Z,100547.25
2022-09-06T20:03:44.918Z,100551.03
2022-09-06T20:06:12.133Z,100555.50
2022-09-06T20:08:40.388Z,100564.22
2022-09-06T20:11:09.526Z,100568.91
2022-09-06T20:13:38.070Z,100563.25
2022-09-06T20:16:06.376Z,100563.53
2022-09-06T20:18:33.987Z,100565.28
2022-09-06T20:21:00.793Z,100565.50
2022-09-06T20:23:29.123Z,100571.28
2022-09-06T20:26:15.015Z,100570.13
2022-09-06T20:28:42.675Z,100567.16
2022-09-06T20:31:12.531Z,100568.66
2022-09-06T20:33:39.652Z,100559.38
2022-09-06T20:36:08.457Z,100555.84
2022-09-06T20:38:37.803Z,100557.97
2022-09-06T20:41:06.460Z,100555.41
2022-09-06T20:43:36.570Z,100565.03
2022-09-06T20:46:15.981Z,100559.03
2022-09-06T20:48:45.013Z,100560.56
2022-09-06T20:51:20.933Z,100559.63
2022-09-06T20:53:51.645Z,100560.94
2022-09-06T20:56:20.889Z,100562.69
2022-09-06T20:58:51.777Z,100568.09
2022-09-06T21:01:22.907Z,100574.69
2022-09-06T21:03:52.522Z,100566.22
2022-09-06T21:06:20.536Z,100566.91
2022-09-06T21:08:48.043Z,100571.13
2022-09-06T21:11:14.871Z,100548.09
2022-09-06T21:13:41.650Z,100563.00
2022-09-06T21:16:09.037Z,100555.97
2022-09-06T21:18:36.630Z,100549.38
2022-09-06T21:21:07.883Z,100546.31
2022-09-06T21:23:36.993Z,100547.34
2022-09-06T21:26:06.178Z,100552.75
2022-09-06T21:28:35.492Z,100556.06
2022-09-06T21:31:03.254Z,100568.31
2022-09-06T21:33:32.369Z,100571.69
2022-09-06T21:36:06.936Z,100571.84
2022-09-06T21:38:34.975Z,100567.59
2022-09-06T21:41:03.119Z,100569.75
2022-09-06T21:43:30.446Z,100575.72
2022-09-06T21:46:00.418Z,100569.59
2022-09-06T21:48:27.331Z,100577.09
2022-09-06T21:50:54.204Z,100569.94
2022-09-06T21:53:22.956Z,100577.00
2022-09-06T21:55:50.103Z,100584.50
2022-09-06T21:58:16.807Z,100587.47
2022-09-06T22:00:46.130Z,100588.25
2022-09-06T22:03:12.932Z,100573.78
2022-09-06T22:05:39.963Z,100578.38
2022-09-06T22:08:06.645Z,100575.78
2022-09-06T22:10:33.355Z,100572.09
2022-09-06T22:13:00.035Z,100573.13
2022-09-06T22:15:26.734Z,100578.53
2022-09-06T22:17:53.706Z,100576.44
2022-09-06T22:20:21.025Z,100583.13
2022-09-06T22:22:48.927Z,100572.09
2022-09-06T22:25:15.862Z,100570.66
2022-09-06T22:27:42.594Z,100580.19
2022-09-06T22:30:09.882Z,100581.41
2022-09-06T22:32:37.121Z,100572.56
2022-09-06T22:35:06.020Z,100575.41
2022-09-06T22:37:33.982Z,100570.81
2022-09-06T22:40:02.196Z,100570.81
2022-09-06T22:42:28.998Z,100568.56
2022-09-06T22:44:55.947Z,100572.31
2022-09-06T22:47:23.013Z,100572.41
2022-09-06T22:49:49.874Z,100578.19
2022-09-06T22:52:16.559Z,100572.66
2022-09-06T22:54:43.281Z,100577.00
2022-09-06T22:57:10.148Z,100580.19
2022-09-06T22:59:37.215Z,100582.28
2022-09-06T23:02:05.056Z,100582.97
2022-09-06T23:04:32.122Z,100587.75
2022-09-06T23:06:59.692Z,100591.66
2022-09-06T23:09:26.563Z,100594.03
2022-09-06T23:11:53.322Z,100587.84
2022-09-06T23:14:20.102Z,100598.84
2022-09-06T23:16:46.822Z,100588.84
2022-09-06T23:19:13.624Z,100584.56
2022-09-06T23:21:40.368Z,100584.78
2022-09-06T23:24:07.333Z,100580.81
2022-09-06T23:26:34.359Z,100581.84
2022-09-06T23:29:01.541Z,100588.00
2022-09-06T23:31:31.613Z,100581.41
2022-09-06T23:34:00.477Z,100580.72
2022-09-06T23:36:28.378Z,100576.00
2022-09-06T23:38:56.178Z,100581.09
2022-09-06T23:41:23.917Z,100573.06
2022-09-06T23:43:50.647Z,100574.88
2022-09-06T23:46:17.715Z,100576.38
2022-09-06T23:48:44.497Z,100572.06
2022-09-06T23:51:12.070Z,100566.38
2022-09-06T23:53:39.464Z,100554.13
2022-09-06T23:56:07.056Z,100558.50
2022-09-06T23:58:34.063Z,100561.16
